Antioch, TX

7:44 AM CDT on July 29, 2014 (GMT -0500)
Amateur Radio Station -- W5RYM (KTXJOAQU2) Elev 283 ft | 31.91 °N, 94.08 °W | Change Station

Current weather conditions updated 1 second ago

Clear
Clear
71.9 °F
Feels Like 71.9 °F
N
0.0
Wind Variable Wind from NNW
Gusts 2.0 mph

Today is forecast to be nearly the same temperature as yesterday.

Today
High -- | Low -- °F
--% Chance of Precip.
Yesterday
High -- | Low -- °F
Precip. -- in
6:29 AM 8:15 PM
Waxing Crescent, 6% visible
Pressure 30.11 in
Visibility 10.0 miles
Clouds Clear
Dew Point 72 °F
Humidity 100%
Rainfall 0.00 in
Snow Depth Not available.
UV 1 out of 12
Pollen 5.70 out of 12
Air Quality Not available.
Flu Activity Not available.
METAR KOCH 291235Z AUTO 04003KT 10SM CLR 23/21 A3011 RMK AO1

More Conditions Fewer Conditions

Pressure 30.11 in
Visibility 10.0 miles
Clouds Clear
Dew Point 72 °F
Humidity 100%
Rainfall 0.00 in
Snow Depth Not available.
UV 1 out of 12
Pollen 5.70 out of 12
Air Quality Not available.
Flu Activity Not available.
METAR KOCH 291235Z AUTO 04003KT 10SM CLR 23/21 A3011 RMK AO1

More Conditions Fewer Conditions

10-Day Weather Forecast

Almanac

Astronomy

Jul. 29, 2014 Rise Set
Actual Time 6:29 AM CDT 8:15 PM CDT
Civil Twilight 6:03 AM CDT 8:41 PM CDT
Nautical Twilight 5:30 AM CDT 9:14 PM CDT
Astronomical Twilight 4:56 AM CDT 9:48 PM CDT
Moon 8:54 AM CDT 9:42 PM CDT
Length of Visible Light 14h 38m
Length of Day
13h 45m
Tomorrow will be 1m 23s shorter.
Waxing Crescent, 6% of the Moon is Illuminated
Today
Waxing Crescent
Aug 3
First Quarter
Aug 10
Full
Aug 17
Last Quarter
Aug 25
New

Today's Extremes

State Highs State Lows

Community

WunderPhotos

Upload Photos

1,738,705 photos uploaded!

Nearby

Snow Depth

Station Depth Elevation
No new snow has been reported.

Earthquake Activity

City Distance Mag. Time & Date
No recent earthquake activity has been reported nearby.
Minimum magnitude displayed is 2.5.

Coastal Water Temperatures

Place Temperature
No Stations Reporting

Nearby Weather Stations

Station Location Temp. Heat Index Dew Point Humidity Wind Precip. Elev Updated Type
Amateur Radio Station -- W5RYM, Joaquin, TX 71.9 °F - 72 °F 100% NNW  at  0.0 mph 0.00 in / hr 283 ft 7:44 AM CDT Rapid Fire
MesoWest JOAQUN , Joaquin, TX 78 °F 76 °F - - North  at  - 0.00 in / hr 205 ft 5:50 AM CDT MADIS
MesoWest TENAHA , Tenaha, TX 74 °F 72 °F - - North  at  - 0.00 in / hr 359 ft 6:05 AM CDT MADIS
Center, TX, Center, TX 73.3 °F - 72 °F 98% WSW  at  0.0 mph 0.00 in / hr 348 ft 7:44 AM CDT Rapid Fire
RAWS SABINE NORTH TX, Huxley, TX 71 °F - 71 °F 99% North  at  - 0.00 in / hr 145 ft 7:00 AM CDT MADIS
MesoWest TMPSON , Timpson, TX 69 °F - - - North  at  - 0.00 in / hr 352 ft 6:25 AM CDT MADIS
MesoWest LONGST , Longstreet, LA 71 °F - - - North  at  - 0.00 in / hr 335 ft 5:25 AM CDT MADIS
rural Deep East Texas, San Augustine, TX 74.0 °F 71 °F 72 °F 94% North  at  0.0 mph 0.00 in / hr 443 ft 7:43 AM CDT Normal

Show More Stations Show Fewer Stations